Terminal Aerodrome Forecast
Issued by NWS

Home | Current Version | Previous Version | Text Only | Print | Product List | Glossary On
Versions: 1 2 3 4 5 6 7 8 9 10 11 12 13
000
FTUS41 KBOX 282321
TAFFMH
TAF
KFMH 282321Z 2900/2924 20008KT P6SM SCT200
     FM290100 VRB03KT 3SM BR OVC003
     FM291300 17006KT 2SM -RA SCT003 OVC050
     FM291500 11007KT 2SM -RA VCTS OVC060CB
     FM292100 07010KT 3SM +RA BR VCTS OVC030CB=

USA.gov is the U.S. government's official web portal to all federal, state and local government web resources and services.